Time;durP1;ratioP1;P1;durP2;ratioP2;P2;SDS_P1;SDS_P2;PMS_P1;PMS_P2;Temp;Humidity;BMP_temperature;BMP_pressure;BME280_temperature;BME280_humidity;BME280_pressure;Samples;Min_cycle;Max_cycle;Signal;HPM_P1;HPM_P2
2022/10/03 08:20:37;;;;;;;6.73;4.53;;;;;;;22.79;58.76;99972.56;5109550;28;20552;-82
2022/10/03 08:23:23;;;;;;;4.97;4.30;;;;;;;22.84;56.26;99971.16;5140199;27;39859;-80
2022/10/03 08:26:04;;;;;;;4.93;3.07;;;;;;;22.82;55.44;99983.09;5105566;28;42719;-83
2022/10/03 08:28:52;;;;;;;7.30;3.37;;;;;;;22.88;55.41;99994.16;5107434;28;42718;-82
2022/10/03 08:31:55;;;;;;;5.63;2.63;;;;;;;22.24;55.05;99998.50;5108479;28;43944;-83
2022/10/03 08:35:14;;;;;;;6.10;2.37;;;;;;;21.94;56.97;99986.81;5085567;28;39925;-82
2022/10/03 08:38:18;;;;;;;3.97;2.43;;;;;;;22.27;55.57;99993.66;5010483;28;40609;-83
2022/10/03 08:41:20;;;;;;;7.67;2.50;;;;;;;22.29;56.21;99985.41;5106392;28;42828;-81
2022/10/03 08:44:37;;;;;;;3.73;2.50;;;;;;;22.43;54.77;100004.72;5074577;28;42574;-83
2022/10/03 08:47:35;;;;;;;4.90;2.50;;;;;;;22.19;53.42;100021.38;5091567;28;39067;-80
2022/10/03 08:50:30;;;;;;;3.20;2.23;;;;;;;22.11;54.33;100004.19;5125426;27;40794;-80
2022/10/03 08:53:31;;;;;;;4.30;2.10;;;;;;;21.98;54.80;99992.78;5090858;28;43347;-78
2022/10/03 08:56:06;;;;;;;4.10;2.30;;;;;;;21.83;55.32;100001.28;5106188;28;42101;-81
2022/10/03 08:59:03;;;;;;;3.87;2.00;;;;;;;22.17;54.48;100006.31;5106873;28;40916;-79
2022/10/03 09:02:00;;;;;;;5.27;2.27;;;;;;;22.81;52.78;100022.75;5105767;28;41999;-81
2022/10/03 09:05:05;;;;;;;5.07;2.07;;;;;;;22.50;53.21;100016.66;5107104;28;42702;-81
2022/10/03 09:08:03;;;;;;;6.47;2.60;;;;;;;22.72;52.50;100022.75;5108888;28;42804;-82
2022/10/03 09:10:37;;;;;;;5.13;2.33;;;;;;;22.66;52.91;100012.53;5109120;28;40265;-80
2022/10/03 09:13:38;;;;;;;4.07;2.20;;;;;;;22.39;52.47;100003.31;5124182;27;41109;-83
2022/10/03 09:16:43;;;;;;;4.73;2.30;;;;;;;22.04;52.51;99966.09;5104198;28;42775;-83
2022/10/03 09:19:29;;;;;;;4.17;2.17;;;;;;;22.34;52.89;100005.59;5106835;28;42330;-79
2022/10/03 09:22:27;;;;;;;5.00;2.23;;;;;;;22.21;52.63;99995.09;5142263;27;40043;-80
2022/10/03 09:25:14;;;;;;;4.67;2.33;;;;;;;22.07;52.47;100016.25;5107155;28;41930;-83
2022/10/03 09:28:19;;;;;;;5.33;2.33;;;;;;;21.83;52.51;99997.72;5083046;28;42349;-84
2022/10/03 09:31:02;;;;;;;4.07;2.13;;;;;;;21.93;52.78;100000.44;5099011;28;41142;-85
2022/10/03 09:34:02;;;;;;;5.20;2.13;;;;;;;22.03;52.86;100004.00;5055588;28;40528;-82
2022/10/03 09:36:55;;;;;;;5.47;2.00;;;;;;;22.35;53.14;99993.81;5051127;28;40519;-86
2022/10/03 09:39:54;;;;;;;5.43;2.30;;;;;;;22.57;52.64;99990.78;5073463;28;41698;-84
2022/10/03 09:42:50;;;;;;;3.90;2.23;;;;;;;22.72;52.68;100011.94;5081000;28;42925;-84
2022/10/03 09:46:02;;;;;;;4.40;2.00;;;;;;;22.69;52.40;100012.25;5093480;28;39392;-82
2022/10/03 09:49:00;;;;;;;4.17;2.33;;;;;;;22.52;50.48;99997.59;5082717;28;41285;-82
2022/10/03 09:55:06;;;;;;;3.40;1.60;;;;;;;22.78;51.12;100014.09;5150562;27;21138;-82
2022/10/03 09:58:00;;;;;;;3.47;1.93;;;;;;;22.91;51.30;100009.22;5094550;27;39428;-82
2022/10/03 10:00:45;;;;;;;3.10;1.57;;;;;;;23.04;49.92;100020.56;5115574;27;41908;-83
2022/10/03 10:03:47;;;;;;;3.30;1.77;;;;;;;23.61;49.17;100029.50;5111606;27;44747;-89
2022/10/03 10:06:28;;;;;;;4.47;1.77;;;;;;;24.15;48.27;100019.56;5095968;27;42330;-84
2022/10/03 10:09:41;;;;;;;2.43;1.40;;;;;;;24.58;46.51;100030.50;5115143;27;40366;-86
2022/10/03 10:12:44;;;;;;;2.93;1.53;;;;;;;24.44;46.44;100017.53;5109678;27;42061;-86
2022/10/03 10:15:50;;;;;;;2.20;1.50;;;;;;;24.25;47.24;100023.09;5111774;27;42960;-89
2022/10/03 10:18:58;;;;;;;4.13;1.50;;;;;;;24.29;47.10;100025.34;5113713;27;41088;-87
2022/10/03 10:22:06;;;;;;;4.57;1.57;;;;;;;24.83;44.86;100023.41;5114784;27;40125;-83
2022/10/03 10:25:28;;;;;;;2.73;1.40;;;;;;;25.36;43.48;100036.81;5149325;27;43188;-86
2022/10/03 10:28:20;;;;;;;2.80;1.40;;;;;;;25.40;43.44;100026.50;5066245;28;42733;-82
2022/10/03 10:31:28;;;;;;;2.87;1.30;;;;;;;25.17;44.44;100030.78;5032368;28;41509;-85
2022/10/03 10:34:49;;;;;;;2.50;1.40;;;;;;;24.95;43.44;100024.03;5122803;27;39886;-83
2022/10/03 10:37:53;;;;;;;2.63;1.20;;;;;;;25.13;43.41;100035.66;5106772;27;41464;-85
2022/10/03 10:41:04;;;;;;;3.27;1.37;;;;;;;26.03;42.33;100028.78;5131264;27;45186;-82
2022/10/03 10:44:31;;;;;;;1.80;1.30;;;;;;;30.15;35.73;100023.84;5131805;27;42454;-83
2022/10/03 10:47:12;;;;;;;3.07;1.50;;;;;;;31.12;32.58;100083.50;5113932;27;40478;-83
2022/10/03 10:50:19;;;;;;;3.43;1.30;;;;;;;29.87;34.79;100072.00;5131360;27;43302;-83
2022/10/03 10:53:29;;;;;;;2.93;1.60;;;;;;;28.70;37.32;100051.69;5090236;27;42839;-83
2022/10/03 10:56:26;;;;;;;2.23;1.20;;;;;;;28.13;38.33;100038.47;5111344;27;42191;-85
2022/10/03 10:59:42;;;;;;;4.97;1.40;;;;;;;27.48;37.54;100060.53;5094442;27;38891;-89
2022/10/03 11:02:35;;;;;;;2.80;1.10;;;;;;;26.35;39.33;100039.72;5032256;28;40976;-83
2022/10/03 11:05:56;;;;;;;2.73;1.23;;;;;;;25.34;40.63;100044.28;5080911;28;42304;-86
2022/10/03 11:09:02;;;;;;;4.03;1.23;;;;;;;24.53;41.12;100038.25;5134269;27;42098;-86
2022/10/03 11:12:15;;;;;;;1.80;0.93;;;;;;;23.86;44.04;100012.50;5117221;27;40127;-85
2022/10/03 11:15:30;;;;;;;2.40;1.20;;;;;;;23.31;44.96;100005.38;5117489;27;41870;-84
2022/10/03 11:18:19;;;;;;;1.33;1.10;;;;;;;22.99;45.83;100006.66;5100340;27;41701;-84
2022/10/03 11:21:17;;;;;;;1.50;1.10;;;;;;;23.01;46.46;99995.69;5117490;27;43251;-85
2022/10/03 11:24:14;;;;;;;2.27;1.10;;;;;;;23.35;45.40;99998.69;5091126;27;40246;-86
2022/10/03 11:27:16;;;;;;;2.47;1.30;;;;;;;23.27;45.27;100000.28;5096512;28;43511;-85
2022/10/03 11:30:20;;;;;;;4.13;1.40;;;;;;;23.25;45.65;99996.88;5095407;28;43614;-85
2022/10/03 11:33:24;;;;;;;4.47;1.40;;;;;;;23.11;45.86;99994.69;5094389;27;43497;-84
2022/10/03 11:36:30;;;;;;;3.40;1.30;;;;;;;23.04;47.06;99982.72;5077389;27;38787;-86
2022/10/03 11:39:04;;;;;;;1.50;1.13;;;;;;;23.00;46.47;99986.72;5100419;27;42092;-85
2022/10/03 11:41:53;;;;;;;3.93;1.50;;;;;;;23.18;45.78;100000.31;5099888;27;42983;-84
2022/10/03 11:44:26;;;;;;;3.67;1.17;;;;;;;23.14;45.87;99983.53;5121922;27;43178;-83
2022/10/03 11:47:13;;;;;;;2.90;1.23;;;;;;;23.36;46.45;99992.28;5109392;28;39269;-86
2022/10/03 11:50:12;;;;;;;2.23;1.10;;;;;;;24.36;44.66;99998.47;5092804;28;41610;-85
2022/10/03 11:52:48;;;;;;;2.20;1.23;;;;;;;27.30;41.24;100019.13;5118839;27;43205;-85
2022/10/03 11:55:31;;;;;;;3.03;1.00;;;;;;;30.25;36.42;100046.22;5104883;27;44341;-86
2022/10/03 11:58:17;;;;;;;2.67;1.30;;;;;;;30.24;34.04;100066.41;5099788;27;40160;-83
2022/10/03 12:00:51;;;;;;;1.53;1.40;;;;;;;31.19;33.12;100060.59;5117082;27;41760;-86
2022/10/03 12:03:28;;;;;;;3.07;1.47;;;;;;;32.04;32.54;100056.63;5113584;27;43684;-87
2022/10/03 12:08:55;;;;;;;2.33;1.07;;;;;;;30.61;32.18;100043.47;5112546;27;39819;-80
2022/10/03 12:11:27;;;;;;;2.13;1.23;;;;;;;29.73;33.68;100048.28;5113546;27;42007;-80
2022/10/03 12:14:14;;;;;;;2.30;1.10;;;;;;;28.80;33.95;100041.44;5116156;27;44419;-81
2022/10/03 12:17:00;;;;;;;2.10;1.00;;;;;;;27.93;35.34;100026.34;5130163;27;42116;-82
2022/10/03 12:19:34;;;;;;;2.40;0.93;;;;;;;27.38;35.81;100015.50;5114325;27;39889;-81
2022/10/03 12:22:13;;;;;;;2.13;0.90;;;;;;;27.04;36.67;100015.78;5113136;27;42724;-79
2022/10/03 12:24:44;;;;;;;2.10;0.93;;;;;;;26.62;37.86;100014.09;5114441;27;42660;-80
2022/10/03 12:27:21;;;;;;;2.27;0.97;;;;;;;26.25;38.89;99995.53;5099174;27;41256;-80
2022/10/03 12:29:57;;;;;;;1.73;1.13;;;;;;;25.93;38.70;99988.22;5132941;27;39857;-79
2022/10/03 12:32:32;;;;;;;2.17;0.70;;;;;;;25.75;39.11;99992.91;5116451;27;40964;-80
2022/10/03 12:35:18;;;;;;;3.00;0.90;;;;;;;25.53;39.07;99988.06;5132766;27;43303;-80
2022/10/03 12:38:03;;;;;;;4.23;1.37;;;;;;;25.23;39.48;99987.59;5099241;27;41395;-80
2022/10/03 12:40:35;;;;;;;2.00;1.13;;;;;;;25.14;40.27;99972.28;5115965;27;38891;-80
2022/10/03 12:43:10;;;;;;;2.93;1.00;;;;;;;25.19;39.84;99980.81;5113099;27;41736;-80
2022/10/03 12:45:42;;;;;;;2.17;0.97;;;;;;;25.35;40.70;99970.00;5115239;27;42450;-80
2022/10/03 12:48:32;;;;;;;3.07;0.90;;;;;;;25.40;39.34;99966.81;5116061;27;41806;-80
2022/10/03 12:51:10;;;;;;;2.33;0.90;;;;;;;25.27;39.22;99971.84;5115510;27;40534;-81
2022/10/03 12:53:50;;;;;;;2.27;1.13;;;;;;;24.85;39.89;99960.94;5098829;27;42078;-81
2022/10/03 12:56:25;;;;;;;2.63;0.87;;;;;;;24.48;40.84;99959.31;5115940;27;41595;-86
2022/10/03 12:59:11;;;;;;;1.77;1.03;;;;;;;24.24;42.01;99948.28;5098795;27;41372;-84
2022/10/03 13:01:55;;;;;;;1.93;0.80;;;;;;;23.93;42.32;99950.53;5113690;27;39752;-83
2022/10/03 13:04:32;;;;;;;2.23;0.97;;;;;;;23.60;42.27;99943.94;5113205;27;41977;-81
2022/10/03 13:07:18;;;;;;;2.67;1.00;;;;;;;23.47;43.39;99940.72;5099048;27;42696;-84
2022/10/03 13:10:02;;;;;;;2.53;1.07;;;;;;;23.37;43.96;99919.13;5115694;27;42798;-83
2022/10/03 13:12:39;;;;;;;2.50;0.90;;;;;;;23.46;44.17;99939.00;5131245;27;39669;-82
2022/10/03 13:15:40;;;;;;;2.17;0.80;;;;;;;23.44;43.20;99943.72;5098292;27;42307;-83
2022/10/03 13:18:21;;;;;;;4.17;1.20;;;;;;;23.18;42.75;99922.78;5098638;27;41735;-80
2022/10/03 13:20:58;;;;;;;1.40;0.90;;;;;;;23.14;42.89;99951.13;5115142;27;41956;-84
2022/10/03 13:23:38;;;;;;;1.67;0.90;;;;;;;22.90;44.17;99910.25;5115646;27;41921;-85
2022/10/03 13:26:15;;;;;;;3.07;0.97;;;;;;;22.87;44.17;99924.09;5115345;27;42617;-82
2022/10/03 13:29:12;;;;;;;2.10;0.97;;;;;;;22.87;43.98;99932.19;5098383;27;43962;-82
2022/10/03 13:32:05;;;;;;;2.50;1.10;;;;;;;22.82;43.61;99945.28;5115344;27;40787;-85
2022/10/03 13:34:47;;;;;;;1.57;1.03;;;;;;;22.65;44.57;99917.16;5098407;27;39126;-82
2022/10/03 13:37:25;;;;;;;2.13;1.00;;;;;;;23.10;45.20;99927.25;5098501;27;43034;-83
2022/10/03 13:40:01;;;;;;;2.10;0.87;;;;;;;23.51;44.88;99925.91;5132265;27;43586;-82
2022/10/03 13:42:39;;;;;;;3.13;1.03;;;;;;;23.78;43.61;99917.72;5115310;27;44448;-81
2022/10/03 13:45:14;;;;;;;2.73;1.23;;;;;;;23.87;43.43;99926.78;5115061;27;38998;-81
2022/10/03 13:47:46;;;;;;;2.87;1.50;;;;;;;23.70;43.01;99925.78;5098309;27;41730;-80
2022/10/03 13:50:18;;;;;;;2.00;0.90;;;;;;;23.63;43.21;99930.09;5132087;27;42748;-79
2022/10/03 13:52:52;;;;;;;2.43;0.90;;;;;;;23.51;43.43;99915.09;5097957;27;43007;-80
2022/10/03 13:55:43;;;;;;;2.83;1.00;;;;;;;23.34;42.80;99921.28;5113918;27;39992;-80
2022/10/03 13:58:42;;;;;;;2.77;1.17;;;;;;;22.95;43.95;99882.81;5132212;27;42776;-80
2022/10/03 14:01:33;;;;;;;6.47;1.10;;;;;;;23.16;44.09;99919.38;5114810;27;42103;-82
2022/10/03 14:04:37;;;;;;;2.23;1.00;;;;;;;23.58;43.38;99927.00;5114792;27;41168;-81
2022/10/03 14:07:13;;;;;;;2.77;1.00;;;;;;;23.35;42.82;99909.47;5089265;27;39728;-81
2022/10/03 14:09:56;;;;;;;2.17;0.90;;;;;;;23.17;43.27;99928.34;5114784;27;40442;-80
2022/10/03 14:12:37;;;;;;;2.73;1.00;;;;;;;22.99;44.46;99914.78;5111862;27;42870;-81
2022/10/03 14:15:26;;;;;;;1.40;0.73;;;;;;;22.73;45.52;99908.31;5131602;27;42709;-79
2022/10/03 14:18:06;;;;;;;2.73;1.47;;;;;;;22.60;45.65;99902.41;5111894;27;39758;-80
2022/10/03 14:20:58;;;;;;;2.30;1.27;;;;;;;22.75;45.64;99904.47;5114277;27;41642;-80
2022/10/03 14:23:32;;;;;;;2.53;0.97;;;;;;;22.55;45.62;99887.47;5114399;27;44781;-80
2022/10/03 14:26:07;;;;;;;1.73;0.80;;;;;;;22.84;45.52;99900.06;5097469;27;41302;-79
2022/10/03 14:28:43;;;;;;;4.17;1.00;;;;;;;22.96;44.09;99904.28;5129908;27;39857;-79
2022/10/03 14:31:17;;;;;;;2.53;1.13;;;;;;;22.73;44.76;99900.22;5114700;27;41980;-79
2022/10/03 14:33:49;;;;;;;3.17;1.00;;;;;;;22.32;45.64;99877.19;5114862;27;41652;-80
2022/10/03 14:36:36;;;;;;;1.30;0.80;;;;;;;21.93;46.76;99865.56;5097561;27;41161;-80
2022/10/03 14:39:20;;;;;;;1.23;1.10;;;;;;;21.59;46.84;99867.84;5112007;27;39961;-80
2022/10/03 14:42:17;;;;;;;1.50;1.00;;;;;;;21.31;47.80;99873.06;5100973;27;42128;-80
2022/10/03 14:44:53;;;;;;;1.10;0.80;;;;;;;21.15;48.01;99876.25;5100835;27;43255;-80
2022/10/03 14:47:22;;;;;;;2.87;1.13;;;;;;;21.00;48.60;99877.66;5114878;27;41684;-80
2022/10/03 14:49:53;;;;;;;2.50;1.10;;;;;;;20.85;49.31;99868.25;5136058;27;40910;-79
2022/10/03 14:52:29;;;;;;;3.00;1.20;;;;;;;20.69;48.54;99879.50;5114675;27;42796;-78
2022/10/03 14:55:06;;;;;;;2.37;1.40;;;;;;;20.53;49.32;99875.59;5115857;27;43515;-80
2022/10/03 14:57:37;;;;;;;4.53;1.10;;;;;;;20.23;49.63;99854.88;5117731;27;40915;-81
2022/10/03 15:00:08;;;;;;;4.43;1.30;;;;;;;20.12;50.21;99869.25;5101140;27;39804;-81
2022/10/03 15:02:38;;;;;;;1.70;0.87;;;;;;;19.91;49.91;99874.63;5135812;27;41464;-79
2022/10/03 15:05:13;;;;;;;2.00;0.97;;;;;;;19.70;50.37;99863.00;5117676;27;42665;-80
2022/10/03 15:07:44;;;;;;;2.17;0.83;;;;;;;19.54;51.37;99866.09;5117633;27;42248;-80
2022/10/03 15:10:16;;;;;;;2.03;1.00;;;;;;;19.42;51.76;99869.78;5117390;27;38752;-80
2022/10/03 15:12:48;;;;;;;1.50;0.90;;;;;;;19.32;52.21;99855.41;5117614;27;42095;-79
2022/10/03 15:15:23;;;;;;;1.20;0.80;;;;;;;19.20;52.04;99859.09;5099890;27;42637;-80
2022/10/03 15:17:54;;;;;;;3.00;1.20;;;;;;;19.04;52.17;99859.50;5100193;27;43006;-79
2022/10/03 15:20:27;;;;;;;2.47;0.97;;;;;;;18.93;52.65;99854.16;5099916;27;39727;-79
2022/10/03 15:22:59;;;;;;;1.37;1.10;;;;;;;18.81;52.51;99853.31;5117528;27;42453;-80
2022/10/03 15:25:33;;;;;;;1.93;0.97;;;;;;;18.64;52.94;99835.06;5116696;27;42797;-82
2022/10/03 15:28:07;;;;;;;2.83;1.03;;;;;;;18.60;52.98;99855.91;5114527;27;42530;-80
2022/10/03 15:30:39;;;;;;;2.30;1.03;;;;;;;18.52;53.45;99860.13;5116451;27;39887;-81
2022/10/03 15:33:19;;;;;;;2.63;1.60;;;;;;;18.41;53.93;99849.41;5100497;27;40659;-79
2022/10/03 15:35:54;;;;;;;2.13;1.43;;;;;;;18.30;54.20;99848.41;5116170;27;43524;-81
2022/10/03 15:38:25;;;;;;;2.83;1.53;;;;;;;18.13;54.37;99840.84;5114131;27;43199;-80
2022/10/03 15:41:06;;;;;;;2.33;1.40;;;;;;;18.08;54.45;99851.06;5116841;27;40070;-79
2022/10/03 15:43:37;;;;;;;3.17;2.30;;;;;;;18.01;54.80;99847.16;5117134;27;41806;-79
2022/10/03 15:46:15;;;;;;;2.30;1.70;;;;;;;17.96;54.62;99852.00;5134989;27;42652;-80
2022/10/03 15:48:43;;;;;;;2.73;1.87;;;;;;;17.88;54.76;99851.75;5113844;27;42428;-80
2022/10/03 15:51:18;;;;;;;4.00;1.70;;;;;;;17.76;55.41;99847.34;5116495;27;39175;-81
2022/10/03 15:53:49;;;;;;;2.63;1.30;;;;;;;17.57;55.76;99821.91;5099453;27;41081;-81
2022/10/03 15:56:23;;;;;;;2.10;1.47;;;;;;;17.65;55.86;99847.31;5099467;27;42017;-79
2022/10/03 15:58:55;;;;;;;3.90;1.50;;;;;;;17.58;56.64;99839.69;5113926;27;42180;-80
2022/10/03 16:01:27;;;;;;;4.07;1.53;;;;;;;17.54;56.58;99845.41;5117218;27;40391;-79
2022/10/03 16:04:00;;;;;;;2.93;1.50;;;;;;;17.48;57.15;99837.81;5099482;27;42964;-79
2022/10/03 16:06:34;;;;;;;1.90;1.30;;;;;;;17.41;57.31;99842.78;5116611;27;43352;-79
2022/10/03 16:09:08;;;;;;;3.73;1.50;;;;;;;17.33;57.34;99838.97;5113442;27;42331;-79
2022/10/03 16:11:48;;;;;;;2.50;1.70;;;;;;;17.14;57.92;99818.06;5099552;27;41249;-79
2022/10/03 16:14:23;;;;;;;2.33;1.20;;;;;;;17.23;57.71;99833.44;5132191;27;42691;-79
2022/10/03 16:16:56;;;;;;;2.43;1.97;;;;;;;17.15;58.12;99820.63;5116320;27;43129;-80
2022/10/03 16:19:30;;;;;;;4.53;1.40;;;;;;;17.14;58.34;99820.75;5099643;27;41230;-80
2022/10/03 16:22:12;;;;;;;3.00;1.83;;;;;;;17.10;58.21;99821.94;5113791;27;40923;-79
2022/10/03 16:24:44;;;;;;;3.10;1.50;;;;;;;17.05;58.50;99824.13;5116743;27;42068;-80
2022/10/03 16:27:16;;;;;;;3.73;1.90;;;;;;;17.01;58.66;99819.94;5116771;27;43172;-80
2022/10/03 16:29:52;;;;;;;1.97;1.40;;;;;;;16.84;58.70;99803.28;5114277;27;42497;-80
2022/10/03 16:32:24;;;;;;;4.07;1.50;;;;;;;16.84;59.09;99805.97;5113359;27;40003;-79
2022/10/03 16:34:53;;;;;;;4.00;1.70;;;;;;;16.72;59.08;99797.97;5132289;27;41905;-80
2022/10/03 16:37:25;;;;;;;4.13;1.47;;;;;;;16.78;58.83;99817.13;5115906;27;41777;-81
2022/10/03 16:39:57;;;;;;;3.70;1.47;;;;;;;16.77;59.02;99820.78;5116225;27;42471;-79
2022/10/03 16:42:29;;;;;;;3.47;1.60;;;;;;;16.71;59.46;99823.03;5113441;27;40910;-79
2022/10/03 16:45:00;;;;;;;2.87;1.70;;;;;;;16.65;59.79;99824.34;5114304;27;41561;-79
2022/10/03 16:47:35;;;;;;;2.70;1.73;;;;;;;16.60;59.80;99815.75;5116112;27;41741;-80
2022/10/03 16:53:00;;;;;;;5.17;1.90;;;;;;;16.46;60.05;99818.53;5078225;27;40208;-78
2022/10/03 16:55:32;;;;;;;3.63;2.17;;;;;;;16.36;60.61;99810.34;5098579;27;40426;-79
2022/10/03 16:58:10;;;;;;;2.17;1.70;;;;;;;16.32;61.02;99816.03;5112900;27;42798;-81
2022/10/03 17:00:44;;;;;;;3.70;2.10;;;;;;;16.26;61.08;99819.13;5133148;27;42213;-80
2022/10/03 17:03:21;;;;;;;3.10;1.97;;;;;;;16.06;60.79;99799.16;5098323;27;38710;-80
2022/10/03 17:05:53;;;;;;;1.70;1.60;;;;;;;16.06;60.83;99807.16;5098817;27;42074;-80
2022/10/03 17:08:26;;;;;;;2.47;1.60;;;;;;;16.05;61.07;99824.16;5115558;27;41618;-79
2022/10/03 17:10:56;;;;;;;2.70;1.63;;;;;;;15.96;60.99;99817.63;5115395;27;43157;-80
2022/10/03 17:13:29;;;;;;;3.97;2.00;;;;;;;15.82;61.42;99808.88;5098677;27;41260;-78
2022/10/03 17:16:03;;;;;;;2.83;1.93;;;;;;;15.69;61.37;99804.38;5098140;27;40645;-80
2022/10/03 17:18:39;;;;;;;2.43;1.53;;;;;;;15.62;61.72;99807.53;5130392;27;43550;-80
2022/10/03 17:21:21;;;;;;;2.00;1.80;;;;;;;15.59;62.03;99813.09;5097990;27;42585;-79
2022/10/03 17:23:58;;;;;;;3.33;1.90;;;;;;;15.48;62.37;99807.59;5115516;27;40312;-79
2022/10/03 17:26:32;;;;;;;3.80;2.10;;;;;;;15.37;62.49;99809.16;5115175;27;42071;-80
2022/10/03 17:29:09;;;;;;;2.07;1.87;;;;;;;15.21;62.46;99796.94;5098927;27;41751;-80
2022/10/03 17:31:44;;;;;;;2.53;1.90;;;;;;;15.22;62.80;99812.84;5130721;27;42885;-79
2022/10/03 17:34:17;;;;;;;4.37;2.30;;;;;;;15.17;62.58;99823.00;5130870;27;39836;-79
2022/10/03 17:37:06;;;;;;;1.83;1.70;;;;;;;15.11;62.98;99815.38;5098264;27;41204;-78
2022/10/03 17:39:53;;;;;;;4.10;2.00;;;;;;;15.08;63.24;99812.94;5114900;27;42101;-80
2022/10/03 17:42:32;;;;;;;1.97;1.67;;;;;;;15.05;63.10;99815.78;5098500;27;43658;-80
2022/10/03 17:45:11;;;;;;;3.27;2.07;;;;;;;14.99;63.20;99816.19;5113072;27;41023;-79
2022/10/03 17:47:50;;;;;;;2.47;1.80;;;;;;;14.82;63.39;99800.44;5098077;27;41822;-80
2022/10/03 17:50:27;;;;;;;3.63;1.83;;;;;;;14.88;63.62;99813.34;5097704;27;42144;-80
2022/10/03 17:52:55;;;;;;;3.07;2.00;;;;;;;14.72;63.71;99795.66;5097643;27;44997;-80
2022/10/03 17:55:27;;;;;;;2.47;2.00;;;;;;;14.65;64.06;99789.03;5097473;27;38829;-78
2022/10/03 17:57:59;;;;;;;2.53;1.90;;;;;;;14.58;64.11;99786.88;5114938;27;40757;-80
2022/10/03 18:00:32;;;;;;;6.87;3.30;;;;;;;14.66;65.17;99801.41;5097381;27;43560;-79
2022/10/03 18:03:07;;;;;;;5.47;3.27;;;;;;;14.64;64.75;99803.31;5097810;27;42061;-79
2022/10/03 18:05:42;;;;;;;5.83;3.23;;;;;;;14.61;64.61;99803.50;5114073;27;39897;-79
2022/10/03 18:08:14;;;;;;;4.00;2.80;;;;;;;14.50;64.96;99795.34;5097801;27;42244;-80
2022/10/03 18:10:48;;;;;;;4.40;2.43;;;;;;;14.31;64.93;99766.31;5112058;27;42735;-81
2022/10/03 18:13:25;;;;;;;4.47;2.50;;;;;;;14.35;64.65;99785.63;5094277;27;41149;-81
2022/10/03 18:16:11;;;;;;;3.47;2.57;;;;;;;14.40;64.99;99798.69;5100163;27;40369;-83
2022/10/03 18:18:52;;;;;;;4.17;2.43;;;;;;;14.33;65.17;99798.22;5101097;27;40972;-82
2022/10/03 18:21:36;;;;;;;3.40;2.17;;;;;;;14.15;65.31;99794.00;5111214;27;43599;-82
2022/10/03 18:24:22;;;;;;;3.27;2.47;;;;;;;14.17;65.25;99813.44;5115688;27;43160;-81
2022/10/03 18:27:04;;;;;;;4.37;2.30;;;;;;;13.77;65.40;99751.09;5117793;27;38636;-81
2022/10/03 18:29:37;;;;;;;3.90;2.47;;;;;;;13.90;66.17;99776.88;5134847;27;41971;-81
2022/10/03 18:32:13;;;;;;;2.83;2.57;;;;;;;13.92;66.06;99785.63;5096862;28;42258;-80
2022/10/03 18:34:48;;;;;;;5.83;3.13;;;;;;;13.95;66.17;99797.91;5114506;28;40999;-81
2022/10/03 18:37:48;;;;;;;5.10;2.67;;;;;;;13.93;66.60;99800.66;5109422;27;38884;-78
2022/10/03 18:40:20;;;;;;;3.53;2.97;;;;;;;13.91;66.80;99801.72;5097551;27;40640;-82
2022/10/03 18:42:50;;;;;;;5.43;2.50;;;;;;;13.84;66.64;99792.41;5114760;27;42699;-79
2022/10/03 18:45:21;;;;;;;3.93;2.80;;;;;;;13.90;66.48;99810.66;5104674;27;41033;-81
2022/10/03 18:47:52;;;;;;;4.27;2.60;;;;;;;13.93;66.70;99811.31;5103137;28;40240;-80
2022/10/03 18:50:24;;;;;;;4.53;2.30;;;;;;;13.86;66.28;99793.13;5087878;28;41602;-81
2022/10/03 18:52:56;;;;;;;4.20;2.70;;;;;;;14.00;66.36;99817.97;5101906;28;41787;-80
2022/10/03 18:55:28;;;;;;;3.77;2.67;;;;;;;14.05;66.39;99819.50;5102415;28;44126;-83
2022/10/03 18:58:05;;;;;;;4.00;2.20;;;;;;;14.09;66.20;99816.56;5098037;27;39652;-82
2022/10/03 19:00:40;;;;;;;4.30;2.67;;;;;;;14.12;66.44;99815.50;5134738;27;41920;-79
2022/10/03 19:03:14;;;;;;;4.33;3.37;;;;;;;14.15;66.33;99816.19;5099979;27;43266;-82
2022/10/03 19:05:47;;;;;;;2.80;2.60;;;;;;;14.17;66.00;99818.75;5100096;27;42393;-81
2022/10/03 19:08:20;;;;;;;4.17;2.80;;;;;;;14.16;66.30;99811.72;5100268;27;38779;-78
2022/10/03 19:10:52;;;;;;;3.33;3.03;;;;;;;14.19;65.96;99811.53;5116510;27;41895;-79
2022/10/03 19:13:29;;;;;;;3.20;2.73;;;;;;;14.19;66.42;99808.88;5100016;27;44328;-80
2022/10/03 19:16:16;;;;;;;2.63;2.30;;;;;;;14.17;66.85;99813.44;5116245;27;42215;-79
2022/10/03 19:18:55;;;;;;;4.10;2.57;;;;;;;14.15;66.42;99812.66;5114290;27;41001;-80
2022/10/03 19:21:24;;;;;;;4.23;2.80;;;;;;;14.11;66.80;99813.78;5113431;27;41944;-78
2022/10/03 19:24:01;;;;;;;2.80;2.60;;;;;;;14.07;66.98;99809.63;5135700;27;42898;-81
2022/10/03 19:26:34;;;;;;;2.80;2.40;;;;;;;13.86;66.94;99778.00;5116476;27;42351;-83
2022/10/03 19:29:05;;;;;;;3.13;2.50;;;;;;;13.96;67.03;99804.97;5113874;27;40948;-81
2022/10/03 19:31:38;;;;;;;3.53;3.23;;;;;;;13.90;67.35;99806.19;5116472;27;40997;-81
2022/10/03 19:34:15;;;;;;;7.57;3.73;;;;;;;13.85;67.38;99800.25;5113930;27;43584;-80
2022/10/03 19:36:43;;;;;;;5.40;3.40;;;;;;;13.76;67.91;99792.84;5095694;28;41873;-83
2022/10/03 19:39:15;;;;;;;3.30;2.90;;;;;;;13.84;67.84;99817.22;5116542;27;39920;-80
2022/10/03 19:41:51;;;;;;;5.77;2.80;;;;;;;13.73;67.73;99798.34;5113360;27;42055;-79
2022/10/03 19:44:23;;;;;;;3.40;2.60;;;;;;;13.70;67.96;99803.88;5114133;27;43865;-80
2022/10/03 19:47:13;;;;;;;3.60;2.77;;;;;;;13.70;68.08;99814.53;5096262;27;42149;-82
2022/10/03 19:49:50;;;;;;;5.47;3.03;;;;;;;13.56;68.08;99801.19;5099597;27;40036;-79
2022/10/03 19:52:24;;;;;;;5.73;3.27;;;;;;;13.61;68.77;99807.06;5099432;27;40618;-79
2022/10/03 19:54:55;;;;;;;3.90;2.87;;;;;;;13.55;69.03;99815.44;5116634;27;43300;-83
2022/10/03 19:57:30;;;;;;;3.73;3.10;;;;;;;13.44;69.03;99799.25;5116755;27;41906;-79
2022/10/03 20:00:01;;;;;;;4.10;2.93;;;;;;;13.38;68.85;99792.47;5099596;27;41311;-83
2022/10/03 20:02:30;;;;;;;4.53;3.57;;;;;;;13.42;68.90;99809.97;5117392;27;41509;-79
2022/10/03 20:05:19;;;;;;;3.70;2.80;;;;;;;13.36;69.38;99812.13;5133754;27;43579;-82
2022/10/03 20:07:52;;;;;;;4.40;3.27;;;;;;;13.29;69.61;99803.66;5113850;27;42361;-81
2022/10/03 20:10:47;;;;;;;5.17;3.27;;;;;;;13.22;69.67;99802.31;5115592;27;40914;-81
2022/10/03 20:13:17;;;;;;;5.33;4.00;;;;;;;13.05;69.32;99784.63;5100207;27;40848;-80
2022/10/03 20:15:47;;;;;;;3.80;3.33;;;;;;;12.94;69.90;99776.41;5134534;27;42988;-82
2022/10/03 20:18:21;;;;;;;5.43;4.40;;;;;;;12.99;70.44;99798.28;5099500;27;42249;-83
2022/10/03 20:20:52;;;;;;;4.30;3.60;;;;;;;12.87;70.39;99791.84;5116271;27;38815;-81
2022/10/03 20:23:23;;;;;;;5.83;4.63;;;;;;;12.83;70.39;99797.44;5113693;27;41882;-83
2022/10/03 20:25:56;;;;;;;4.70;3.90;;;;;;;12.74;71.06;99789.97;5099148;27;42610;-82
2022/10/03 20:28:39;;;;;;;6.40;4.37;;;;;;;12.62;71.44;99786.19;5099438;27;41166;-79
2022/10/03 20:31:07;;;;;;;5.70;4.27;;;;;;;12.22;71.58;99742.41;5131253;27;39978;-81
2022/10/03 20:33:37;;;;;;;7.43;4.90;;;;;;;12.39;71.53;99782.16;5114353;27;42868;-80
2022/10/03 20:36:13;;;;;;;5.53;4.13;;;;;;;12.42;72.11;99792.63;5094225;27;41934;-82
2022/10/03 20:38:58;;;;;;;5.73;4.77;;;;;;;12.24;72.13;99775.91;5110594;27;42814;-80
2022/10/03 20:41:35;;;;;;;6.80;4.93;;;;;;;12.30;71.89;99806.59;5111934;27;40180;-79
2022/10/03 20:44:13;;;;;;;7.87;4.60;;;;;;;12.24;72.16;99796.28;5094676;27;40694;-81
2022/10/03 20:46:45;;;;;;;7.03;4.97;;;;;;;12.07;72.05;99780.44;5096829;27;43484;-79
2022/10/03 20:49:24;;;;;;;4.90;4.03;;;;;;;12.03;72.32;99786.81;5131303;27;43476;-82
2022/10/03 20:52:03;;;;;;;8.53;5.67;;;;;;;12.06;72.94;99792.84;5097956;27;40063;-79
2022/10/03 20:54:36;;;;;;;6.70;4.80;;;;;;;11.98;73.20;99783.59;5093308;27;40294;-79
2022/10/03 20:57:14;;;;;;;6.13;5.20;;;;;;;11.94;72.91;99789.97;5094012;27;41606;-82
2022/10/03 20:59:46;;;;;;;7.17;5.10;;;;;;;11.79;73.10;99776.56;5110277;27;42427;-80
2022/10/03 21:02:24;;;;;;;7.60;4.77;;;;;;;11.64;72.66;99758.75;5096568;27;41734;-79
2022/10/03 21:04:57;;;;;;;5.20;4.40;;;;;;;11.68;72.94;99770.94;5097799;27;42354;-79
2022/10/03 21:07:32;;;;;;;6.67;4.80;;;;;;;11.75;73.27;99793.59;5111324;27;42660;-79
2022/10/03 21:10:08;;;;;;;5.10;4.60;;;;;;;11.60;73.45;99767.00;5112758;27;42899;-83